Strona główna
METAR-TAF:

METAR-TAF

Lotnisko :

Port lotniczy Sakon Nakhon

Sakon Nakhon, Tajlandia

Szerokość geograficzna: 17-11-42N, Długość geograficzna: 104-07-08E, wysokość: 161 m

Aktualna obserwacja pogody

Raport powstał 10 godziny i 1 minut temu, godzina 12:00 UTC
Wiatr 3 kt od wschodnio-południowy wschód
Temperatura 31°C
Wilgotność 63%
Ciśnienie 1010 hPa
Widzialność 10 km lub więcej
Mało chmury na wysokości 3000 ft

METAR: VTUI 101200Z 11003KT 9999 FEW030 31/23 Q1010 NOSIG

czas: 05:01 (22:01 UTC)

Prognoza

Raport powstał 5 godziny i 1 minut temu, godzina 17:00 UTC
Prognoza ważna od 10 godzina 18 UTC do 11 godzina 18 UTC
Wiatr 9 kt od wschód
Widzialność 10 km lub więcej
Mało chmury na wysokości 3500 ft

TAF: VTUI 101700Z 1018/1118 08009KT 9999 FEW035

Obserwacja i prognoza pogody dla ponad 4000 lotnisk (raport METAR i TAF).

Dostępne stacje oznaczono żółtymi i czerwonymi punktami na mapie.

Najedź kursorem aby zobaczyć nazwę stacji.

Kliknij aby zobaczyć obserwacje i prognozy pogody.

Aby zmienić mapę: kliknij na zielony przycisk z czarnym krzyżykiem, aby powiększyć; na zielony przycisk z myślnikiem, aby pomniejszyć; na zielone strzałki, aby przejść do map sąsiednich.


METAR-TAF: